HLE weather

Lago Escondido Heliport
Lago Escondido, Río Negro Province, Argentina

Public forecast

Using degrees Celsius for public forecast. Weather courtesy of forecast.io.

METAR (pilot weather report)

Closest report is San Carlos De Bariloche Airport, 38.8 nm (71.9 km) NNE. Retrieved 2019/04/21 05:00 UTC (45 minutes ago):

SAZS 210500Z 18005KT CAVOK 04/M01 Q1019

TAF (pilot weather forecast)

Closest forecast is San Carlos De Bariloche Airport, 38.8 nm (71.9 km) NNE. Retrieved 2019/04/21 00:00 UTC (6 hours ago):

TAF SAZS 202300Z 2100/2124 29010KT CAVOK TX19/2118Z TN01/2109Z BECMG 2103/2105 VRB03KT